createdAt,value
2022-07-26T00:01:03.135Z,10.50
2022-07-26T00:03:31.166Z,9.98
2022-07-26T00:05:59.655Z,10.02
2022-07-26T00:08:27.720Z,10.07
2022-07-26T00:10:57.021Z,9.95
2022-07-26T00:13:24.992Z,9.95
2022-07-26T00:15:58.594Z,10.45
2022-07-26T00:18:27.130Z,9.80
2022-07-26T00:20:55.498Z,10.35
2022-07-26T00:23:23.923Z,10.68
2022-07-26T00:25:52.030Z,11.27
2022-07-26T00:28:21.341Z,11.10
2022-07-26T00:30:49.442Z,11.20
2022-07-26T00:33:17.437Z,11.15
2022-07-26T00:35:45.685Z,11.43
2022-07-26T00:38:13.744Z,11.82
2022-07-26T00:40:41.765Z,11.40
2022-07-26T00:43:09.833Z,11.70
2022-07-26T00:45:39.300Z,11.52
2022-07-26T00:48:10.035Z,10.05
2022-07-26T00:50:38.118Z,10.50
2022-07-26T00:53:06.515Z,10.32
2022-07-26T00:55:34.566Z,10.75
2022-07-26T00:58:02.903Z,9.80
2022-07-26T01:00:31.295Z,9.63
2022-07-26T01:03:01.560Z,9.73
2022-07-26T01:05:30.303Z,10.07
2022-07-26T01:07:59.289Z,10.55
2022-07-26T01:10:27.300Z,10.30
2022-07-26T01:12:55.309Z,10.65
2022-07-26T01:15:23.489Z,10.38
2022-07-26T01:17:51.563Z,9.90
2022-07-26T01:20:21.201Z,10.32
2022-07-26T01:22:50.623Z,10.07
2022-07-26T01:25:29.630Z,9.85
2022-07-26T01:27:57.889Z,9.55
2022-07-26T01:30:25.883Z,9.90
2022-07-26T01:32:53.882Z,10.57
2022-07-26T01:35:22.337Z,10.15
2022-07-26T01:37:51.720Z,10.95
2022-07-26T01:40:19.807Z,10.82
2022-07-26T01:42:47.902Z,10.60
2022-07-26T01:45:15.846Z,11.05
2022-07-26T01:47:44.646Z,11.02
2022-07-26T01:50:12.756Z,10.38
2022-07-26T01:52:40.751Z,11.45
2022-07-26T01:55:11.207Z,10.60
2022-07-26T01:57:39.236Z,10.20
2022-07-26T02:00:08.977Z,10.25
2022-07-26T02:02:37.342Z,10.85
2022-07-26T02:05:06.151Z,10.82
2022-07-26T02:07:38.744Z,11.55
2022-07-26T02:10:08.171Z,10.82
2022-07-26T02:12:37.863Z,11.35
2022-07-26T02:15:07.379Z,11.52
2022-07-26T02:17:35.422Z,11.65
2022-07-26T02:20:03.727Z,13.75
2022-07-26T02:22:31.776Z,10.70
2022-07-26T02:25:04.791Z,11.48
2022-07-26T02:27:33.463Z,11.68
2022-07-26T02:30:03.114Z,11.38
2022-07-26T02:32:31.114Z,11.73
2022-07-26T02:34:59.388Z,10.65
2022-07-26T02:37:27.460Z,11.57
2022-07-26T02:39:55.432Z,12.55
2022-07-26T02:42:23.420Z,11.98
2022-07-26T02:44:51.433Z,11.98
2022-07-26T02:47:20.883Z,10.90
2022-07-26T02:49:48.879Z,11.07
2022-07-26T02:52:17.182Z,12.23
2022-07-26T02:54:45.484Z,12.40
2022-07-26T02:57:14.666Z,11.98
2022-07-26T02:59:42.775Z,11.75
2022-07-26T03:02:10.747Z,11.85
2022-07-26T03:04:40.048Z,11.55
2022-07-26T03:07:08.017Z,11.18
2022-07-26T03:09:36.002Z,11.55
2022-07-26T03:12:04.402Z,11.27
2022-07-26T03:14:32.369Z,15.73
2022-07-26T03:17:00.380Z,11.38
2022-07-26T03:19:28.359Z,11.93
2022-07-26T03:21:57.807Z,11.43
2022-07-26T03:24:25.837Z,12.10
2022-07-26T03:26:53.756Z,12.23
2022-07-26T03:29:21.731Z,11.82
2022-07-26T03:31:49.715Z,14.02
2022-07-26T03:34:17.717Z,11.35
2022-07-26T03:36:45.727Z,14.57
2022-07-26T03:39:15.170Z,11.95
2022-07-26T03:41:43.155Z,11.82
2022-07-26T03:44:11.528Z,11.98
2022-07-26T03:46:39.806Z,11.57
2022-07-26T03:49:10.888Z,13.45
2022-07-26T03:51:41.225Z,11.75
2022-07-26T03:54:09.781Z,11.70
2022-07-26T03:56:38.618Z,11.95
2022-07-26T03:59:10.062Z,12.25
2022-07-26T04:01:41.922Z,11.10
2022-07-26T04:04:10.811Z,11.40
2022-07-26T04:06:40.159Z,12.15
2022-07-26T04:09:08.973Z,11.45
2022-07-26T04:11:37.089Z,14.25
2022-07-26T04:14:06.775Z,12.13
2022-07-26T04:16:36.948Z,12.48
2022-07-26T04:19:07.138Z,12.05
2022-07-26T04:21:35.425Z,12.10
2022-07-26T04:24:03.543Z,12.18
2022-07-26T04:26:31.777Z,12.68
2022-07-26T04:28:59.980Z,12.95
2022-07-26T04:31:29.438Z,11.75
2022-07-26T04:34:05.110Z,11.88
2022-07-26T04:36:33.437Z,11.73
2022-07-26T04:39:01.524Z,12.13
2022-07-26T04:41:29.511Z,12.65
2022-07-26T04:43:58.145Z,12.15
2022-07-26T04:46:26.300Z,11.55
2022-07-26T04:48:55.787Z,11.80
2022-07-26T04:51:23.807Z,11.70
2022-07-26T04:53:52.387Z,12.05
2022-07-26T04:56:20.406Z,10.93
2022-07-26T04:58:48.484Z,12.88
2022-07-26T05:01:16.692Z,12.20
2022-07-26T05:03:44.647Z,12.00
2022-07-26T05:06:14.018Z,11.20
2022-07-26T05:08:43.328Z,11.95
2022-07-26T05:11:11.425Z,11.13
2022-07-26T05:13:39.445Z,12.13
2022-07-26T05:16:11.908Z,10.95
2022-07-26T05:18:46.060Z,11.13
2022-07-26T05:21:19.748Z,11.15
2022-07-26T05:23:47.913Z,11.57
2022-07-26T05:26:16.101Z,12.18
2022-07-26T05:28:44.134Z,12.60
2022-07-26T05:31:12.372Z,11.73
2022-07-26T05:33:43.817Z,13.13
2022-07-26T05:36:11.869Z,11.80
2022-07-26T05:38:41.768Z,11.93
2022-07-26T05:41:10.137Z,12.70
2022-07-26T05:43:41.160Z,12.32
2022-07-26T05:46:11.164Z,14.18
2022-07-26T05:48:40.267Z,15.02
2022-07-26T05:51:08.550Z,13.27
2022-07-26T05:53:36.799Z,13.60
2022-07-26T05:56:22.979Z,12.73
2022-07-26T05:58:51.054Z,13.98
2022-07-26T06:01:19.447Z,14.25
2022-07-26T06:03:47.707Z,14.05
2022-07-26T06:06:15.888Z,13.65
2022-07-26T06:08:44.227Z,14.00
2022-07-26T06:11:12.246Z,12.15
2022-07-26T06:13:41.821Z,14.52
2022-07-26T06:16:09.955Z,14.55
2022-07-26T06:18:38.013Z,15.48
2022-07-26T06:21:06.291Z,14.40
2022-07-26T06:23:35.219Z,14.10
2022-07-26T06:26:05.318Z,14.70
2022-07-26T06:28:34.036Z,15.07
2022-07-26T06:31:04.039Z,14.23
2022-07-26T06:33:32.150Z,13.68
2022-07-26T06:36:00.701Z,14.40
2022-07-26T06:38:29.278Z,14.30
2022-07-26T06:40:57.399Z,14.63
2022-07-26T06:43:25.528Z,13.38
2022-07-26T06:45:53.629Z,13.45
2022-07-26T06:48:23.049Z,14.02
2022-07-26T06:50:51.341Z,12.35
2022-07-26T06:53:19.935Z,12.88
2022-07-26T06:55:48.023Z,12.48
2022-07-26T06:58:16.186Z,11.38
2022-07-26T07:00:44.314Z,14.35
2022-07-26T07:03:12.424Z,12.98
2022-07-26T07:05:45.394Z,11.85
2022-07-26T07:08:17.416Z,11.63
2022-07-26T07:10:46.356Z,11.75
2022-07-26T07:13:14.466Z,10.40
2022-07-26T07:15:42.561Z,10.50
2022-07-26T07:18:10.750Z,11.18
2022-07-26T07:20:39.510Z,11.93
2022-07-26T07:23:09.383Z,11.18
2022-07-26T07:25:37.528Z,11.93
2022-07-26T07:28:05.992Z,12.63
2022-07-26T07:30:34.201Z,10.98
2022-07-26T07:33:03.501Z,11.25
2022-07-26T07:35:32.867Z,11.60
2022-07-26T07:38:02.015Z,11.48
2022-07-26T07:40:31.832Z,10.88
2022-07-26T07:43:00.020Z,10.80
2022-07-26T07:45:28.273Z,10.40
2022-07-26T07:47:56.386Z,11.30
2022-07-26T07:50:27.126Z,12.57
2022-07-26T07:52:59.259Z,11.05
2022-07-26T07:55:46.179Z,12.35
2022-07-26T07:58:17.379Z,10.52
2022-07-26T08:00:47.200Z,11.20
2022-07-26T08:03:18.038Z,10.60
2022-07-26T08:05:49.710Z,11.95
2022-07-26T08:08:19.115Z,11.45
2022-07-26T08:10:52.189Z,17.10
2022-07-26T08:13:23.013Z,11.13
2022-07-26T08:15:52.005Z,11.18
2022-07-26T08:18:22.568Z,11.45
2022-07-26T08:20:52.066Z,11.32
2022-07-26T08:23:20.650Z,11.13
2022-07-26T08:25:56.260Z,10.70
2022-07-26T08:31:16.378Z,12.27
2022-07-26T08:33:46.457Z,12.27
2022-07-26T08:36:15.475Z,11.60
2022-07-26T08:38:43.713Z,11.15
2022-07-26T08:41:12.903Z,12.40
2022-07-26T08:43:50.994Z,11.13
2022-07-26T08:46:25.212Z,11.15
2022-07-26T08:48:54.819Z,10.68
2022-07-26T08:51:24.600Z,11.20
2022-07-26T08:54:01.910Z,11.05
2022-07-26T08:56:32.808Z,11.43
2022-07-26T08:59:04.857Z,10.60
2022-07-26T09:01:33.131Z,10.95
2022-07-26T09:04:31.056Z,10.65
2022-07-26T09:07:02.168Z,10.88
2022-07-26T09:09:30.383Z,10.52
2022-07-26T09:11:59.653Z,9.75
2022-07-26T09:14:41.931Z,10.40
2022-07-26T09:17:09.932Z,10.18
2022-07-26T09:19:38.020Z,9.90
2022-07-26T09:22:11.766Z,10.32
2022-07-26T09:24:42.604Z,11.30
2022-07-26T09:27:12.821Z,8.98
2022-07-26T09:29:47.167Z,9.52
2022-07-26T09:32:18.438Z,8.82
2022-07-26T09:34:53.055Z,9.60
2022-07-26T09:37:35.476Z,9.00
2022-07-26T09:40:06.088Z,8.63
2022-07-26T09:42:34.124Z,10.02
2022-07-26T09:45:04.368Z,9.23
2022-07-26T09:47:39.937Z,10.35
2022-07-26T09:50:16.105Z,9.45
2022-07-26T09:52:59.670Z,10.05
2022-07-26T09:55:32.924Z,10.20
2022-07-26T09:58:07.650Z,9.55
2022-07-26T10:00:37.230Z,10.18
2022-07-26T10:03:05.488Z,10.38
2022-07-26T10:05:34.282Z,10.00
2022-07-26T10:08:02.736Z,9.82
2022-07-26T10:10:37.252Z,10.02
2022-07-26T10:13:06.842Z,9.98
2022-07-26T10:15:38.375Z,9.30
2022-07-26T10:18:08.415Z,9.95
2022-07-26T10:20:42.471Z,9.27
2022-07-26T10:23:35.640Z,9.15
2022-07-26T10:26:04.920Z,9.43
2022-07-26T10:28:36.620Z,10.02
2022-07-26T10:31:30.590Z,9.52
2022-07-26T10:34:01.031Z,9.13
2022-07-26T10:36:35.887Z,9.35
2022-07-26T10:39:10.602Z,8.70
2022-07-26T10:41:44.806Z,8.23
2022-07-26T10:44:26.925Z,8.27
2022-07-26T10:47:20.134Z,8.20
2022-07-26T10:49:56.945Z,7.43
2022-07-26T10:52:28.008Z,7.10
2022-07-26T10:55:10.225Z,8.13
2022-07-26T10:57:40.538Z,8.20
2022-07-26T11:00:11.838Z,7.88
2022-07-26T11:02:43.894Z,7.15
2022-07-26T11:05:14.566Z,6.72
2022-07-26T11:08:01.725Z,6.72
2022-07-26T11:10:31.947Z,5.78
2022-07-26T11:13:08.598Z,6.88
2022-07-26T11:15:37.194Z,6.28
2022-07-26T11:18:30.740Z,6.05
2022-07-26T11:21:00.381Z,6.10
2022-07-26T11:23:31.313Z,6.30
2022-07-26T11:26:15.088Z,5.72
2022-07-26T11:28:52.992Z,6.00
2022-07-26T11:31:50.923Z,6.15
2022-07-26T11:34:20.475Z,6.38
2022-07-26T11:36:49.057Z,5.85
2022-07-26T11:39:24.543Z,6.75
2022-07-26T11:41:57.659Z,5.57
2022-07-26T11:44:26.438Z,5.35
2022-07-26T11:46:54.968Z,5.28
2022-07-26T11:49:51.828Z,5.45
2022-07-26T11:52:15.620Z,6.00
2022-07-26T11:54:54.564Z,5.40
2022-07-26T11:57:25.396Z,5.45
2022-07-26T11:59:53.517Z,6.57
2022-07-26T12:02:22.653Z,8.23
2022-07-26T12:05:16.829Z,5.07
2022-07-26T12:07:56.370Z,5.00
2022-07-26T12:10:25.062Z,5.18
2022-07-26T12:13:09.089Z,5.05
2022-07-26T12:15:48.269Z,5.22
2022-07-26T12:18:25.227Z,4.32
2022-07-26T12:21:05.503Z,5.03
2022-07-26T12:23:45.174Z,4.75
2022-07-26T12:26:23.490Z,5.05
2022-07-26T12:28:51.727Z,4.82
2022-07-26T12:31:29.224Z,5.38
2022-07-26T12:33:58.050Z,5.63
2022-07-26T12:36:30.009Z,4.95
2022-07-26T12:38:59.692Z,5.50
2022-07-26T12:41:35.866Z,5.65
2022-07-26T12:44:05.047Z,5.50
2022-07-26T12:46:34.529Z,19.38
2022-07-26T12:49:02.993Z,6.03
2022-07-26T12:51:32.622Z,5.47
2022-07-26T12:54:00.844Z,5.43
2022-07-26T12:56:28.960Z,6.07
2022-07-26T12:59:01.262Z,5.88
2022-07-26T13:01:30.450Z,5.88
2022-07-26T13:03:58.762Z,5.55
2022-07-26T13:06:27.294Z,5.90
2022-07-26T13:08:57.136Z,6.20
2022-07-26T13:11:25.291Z,5.53
2022-07-26T13:13:53.405Z,8.30
2022-07-26T13:16:21.506Z,5.90
2022-07-26T13:18:49.679Z,5.82
2022-07-26T13:21:18.110Z,6.22
2022-07-26T13:23:46.135Z,5.43
2022-07-26T13:26:15.641Z,5.70
2022-07-26T13:28:44.425Z,5.70
2022-07-26T13:31:17.701Z,6.00
2022-07-26T13:33:45.873Z,5.43
2022-07-26T13:36:14.077Z,6.03
2022-07-26T13:38:43.048Z,6.00
2022-07-26T13:41:11.216Z,7.00
2022-07-26T13:43:40.748Z,5.68
2022-07-26T13:46:08.890Z,5.15
2022-07-26T13:48:37.061Z,5.45
2022-07-26T13:51:05.669Z,5.15
2022-07-26T13:53:34.077Z,6.95
2022-07-26T13:56:02.493Z,5.68
2022-07-26T13:58:31.126Z,5.63
2022-07-26T14:01:02.426Z,5.38
2022-07-26T14:03:35.251Z,6.13
2022-07-26T14:06:03.869Z,6.18
2022-07-26T14:08:31.880Z,6.05
2022-07-26T14:10:59.868Z,6.78
2022-07-26T14:13:27.879Z,6.10
2022-07-26T14:15:56.206Z,5.57
2022-07-26T14:18:25.557Z,5.07
2022-07-26T14:20:54.190Z,5.70
2022-07-26T14:23:22.184Z,6.32
2022-07-26T14:25:50.724Z,5.85
2022-07-26T14:28:18.831Z,6.05
2022-07-26T14:30:47.025Z,6.53
2022-07-26T14:33:15.245Z,6.35
2022-07-26T14:35:45.026Z,6.10
2022-07-26T14:38:15.703Z,5.97
2022-07-26T14:40:47.582Z,5.82
2022-07-26T14:43:15.670Z,7.70
2022-07-26T14:45:46.616Z,5.72
2022-07-26T14:48:31.541Z,5.70
2022-07-26T14:51:09.473Z,6.40
2022-07-26T14:53:38.078Z,6.53
2022-07-26T14:56:06.530Z,6.15
2022-07-26T14:58:34.485Z,6.05
2022-07-26T15:01:02.732Z,6.13
2022-07-26T15:03:34.393Z,5.70
2022-07-26T15:06:02.535Z,5.90
2022-07-26T15:08:32.123Z,7.20
2022-07-26T15:11:00.201Z,6.40
2022-07-26T15:13:28.332Z,6.28
2022-07-26T15:15:56.513Z,6.63
2022-07-26T15:18:24.558Z,7.38
2022-07-26T15:20:52.661Z,6.50
2022-07-26T15:23:20.885Z,6.03
2022-07-26T15:25:50.349Z,6.55
2022-07-26T15:28:18.354Z,6.15
2022-07-26T15:30:46.413Z,6.32
2022-07-26T15:33:14.927Z,6.35
2022-07-26T15:35:43.843Z,10.52
2022-07-26T15:38:11.918Z,6.55
2022-07-26T15:40:40.400Z,6.68
2022-07-26T15:43:10.088Z,6.20
2022-07-26T15:45:41.343Z,5.97
2022-07-26T15:48:17.026Z,6.32
2022-07-26T15:50:46.532Z,6.43
2022-07-26T15:53:17.269Z,6.22
2022-07-26T15:55:45.263Z,6.38
2022-07-26T15:58:14.797Z,6.00
2022-07-26T16:00:43.805Z,5.85
2022-07-26T16:03:12.997Z,5.85
2022-07-26T16:05:41.170Z,5.97
2022-07-26T16:08:09.216Z,5.75
2022-07-26T16:10:38.177Z,6.07
2022-07-26T16:13:06.440Z,5.90
2022-07-26T16:15:35.895Z,5.53
2022-07-26T16:18:06.468Z,6.47
2022-07-26T16:20:34.857Z,5.72
2022-07-26T16:23:03.137Z,5.97
2022-07-26T16:25:31.130Z,6.20
2022-07-26T16:27:59.474Z,6.10
2022-07-26T16:30:28.083Z,6.15
2022-07-26T16:32:57.497Z,6.10
2022-07-26T16:35:25.676Z,5.90
2022-07-26T16:37:53.647Z,5.57
2022-07-26T16:40:24.677Z,5.97
2022-07-26T16:42:52.737Z,5.88
2022-07-26T16:45:21.474Z,6.18
2022-07-26T16:47:49.807Z,6.35
2022-07-26T16:50:25.136Z,6.20
2022-07-26T16:52:55.537Z,6.30
2022-07-26T16:55:23.566Z,6.45
2022-07-26T16:57:51.608Z,6.85
2022-07-26T17:00:22.144Z,6.47
2022-07-26T17:02:50.220Z,6.32
2022-07-26T17:05:19.634Z,6.70
2022-07-26T17:07:47.676Z,7.07
2022-07-26T17:10:15.711Z,7.22
2022-07-26T17:12:43.892Z,7.15
2022-07-26T17:15:12.621Z,7.97
2022-07-26T17:17:43.750Z,8.77
2022-07-26T17:20:15.337Z,7.70
2022-07-26T17:22:46.206Z,7.72
2022-07-26T17:25:14.696Z,7.88
2022-07-26T17:27:42.774Z,8.45
2022-07-26T17:30:12.222Z,8.10
2022-07-26T17:32:40.340Z,10.15
2022-07-26T17:35:09.949Z,8.50
2022-07-26T17:37:37.960Z,9.15
2022-07-26T17:40:11.340Z,8.85
2022-07-26T17:42:40.000Z,8.20
2022-07-26T17:45:09.040Z,13.80
2022-07-26T17:47:37.103Z,13.32
2022-07-26T17:50:35.229Z,12.43
2022-07-26T17:52:55.848Z,10.77
2022-07-26T17:55:25.410Z,11.32
2022-07-26T17:57:53.718Z,9.63
2022-07-26T18:00:26.149Z,10.95
2022-07-26T18:02:57.554Z,9.10
2022-07-26T18:05:33.084Z,15.13
2022-07-26T18:08:03.369Z,10.25
2022-07-26T18:10:33.154Z,10.23
2022-07-26T18:13:01.215Z,9.90
2022-07-26T18:15:29.324Z,9.57
2022-07-26T18:17:57.365Z,9.00
2022-07-26T18:20:25.464Z,10.30
2022-07-26T18:22:54.689Z,8.95
2022-07-26T18:25:22.763Z,8.75
2022-07-26T18:27:53.896Z,9.20
2022-07-26T18:30:22.129Z,8.73
2022-07-26T18:32:50.244Z,9.40
2022-07-26T18:35:18.361Z,8.77
2022-07-26T18:37:46.755Z,9.98
2022-07-26T18:40:14.955Z,9.13
2022-07-26T18:42:43.402Z,9.10
2022-07-26T18:45:13.175Z,8.70
2022-07-26T18:47:41.900Z,9.52
2022-07-26T18:50:11.563Z,11.00
2022-07-26T18:52:40.661Z,10.07
2022-07-26T18:55:12.788Z,9.00
2022-07-26T18:57:44.952Z,9.07
2022-07-26T19:00:18.179Z,9.52
2022-07-26T19:02:47.797Z,11.27
2022-07-26T19:05:17.646Z,11.48
2022-07-26T19:07:46.501Z,10.57
2022-07-26T19:10:14.658Z,11.15
2022-07-26T19:12:43.796Z,10.45
2022-07-26T19:15:12.152Z,9.70
2022-07-26T19:17:42.944Z,11.52
2022-07-26T19:20:13.079Z,10.73
2022-07-26T19:22:41.524Z,13.48
2022-07-26T19:25:11.086Z,11.18
2022-07-26T19:27:39.717Z,10.13
2022-07-26T19:30:10.390Z,11.27
2022-07-26T19:32:38.895Z,13.65
2022-07-26T19:35:10.322Z,10.40
2022-07-26T19:37:38.449Z,9.73
2022-07-26T19:40:08.074Z,13.50
2022-07-26T19:42:36.260Z,10.52
2022-07-26T19:45:04.796Z,11.13
2022-07-26T19:47:35.688Z,11.32
2022-07-26T19:50:04.717Z,11.45
2022-07-26T19:52:37.312Z,9.93
2022-07-26T19:55:06.178Z,10.20
2022-07-26T19:57:38.966Z,10.25
2022-07-26T20:00:13.608Z,11.20
2022-07-26T20:02:42.491Z,10.52
2022-07-26T20:05:13.271Z,9.75
2022-07-26T20:07:46.097Z,10.98
2022-07-26T20:10:14.274Z,9.73
2022-07-26T20:12:42.847Z,9.90
2022-07-26T20:15:12.165Z,9.93
2022-07-26T20:17:41.358Z,10.32
2022-07-26T20:20:10.644Z,11.20
2022-07-26T20:22:38.649Z,9.75
2022-07-26T20:25:09.938Z,10.02
2022-07-26T20:27:37.987Z,11.95
2022-07-26T20:30:07.346Z,11.50
2022-07-26T20:32:35.437Z,13.00
2022-07-26T20:35:03.576Z,10.23
2022-07-26T20:37:31.716Z,11.18
2022-07-26T20:40:02.190Z,12.63
2022-07-26T20:42:31.620Z,12.20
2022-07-26T20:45:01.069Z,9.98
2022-07-26T20:47:29.302Z,10.30
2022-07-26T20:50:02.997Z,9.95
2022-07-26T20:52:31.501Z,10.57
2022-07-26T20:55:00.381Z,10.65
2022-07-26T20:57:28.408Z,12.07
2022-07-26T20:59:57.788Z,9.90
2022-07-26T21:02:26.086Z,10.35
2022-07-26T21:04:54.270Z,10.50
2022-07-26T21:07:22.294Z,10.50
2022-07-26T21:09:50.451Z,10.32
2022-07-26T21:12:18.494Z,15.13
2022-07-26T21:14:46.473Z,13.23
2022-07-26T21:17:18.774Z,12.32
2022-07-26T21:19:46.783Z,12.85
2022-07-26T21:22:14.790Z,11.68
2022-07-26T21:24:42.850Z,11.43
2022-07-26T21:27:10.934Z,11.77
2022-07-26T21:29:40.256Z,11.98
2022-07-26T21:32:08.388Z,11.82
2022-07-26T21:34:37.927Z,12.25
2022-07-26T21:37:06.306Z,11.95
2022-07-26T21:39:34.335Z,11.93
2022-07-26T21:42:02.375Z,12.63
2022-07-26T21:44:30.353Z,11.60
2022-07-26T21:46:58.611Z,13.85
2022-07-26T21:49:26.626Z,12.55
2022-07-26T21:51:55.992Z,11.23
2022-07-26T21:54:24.114Z,11.38
2022-07-26T21:56:52.993Z,11.68
2022-07-26T21:59:21.339Z,12.00
2022-07-26T22:01:49.682Z,11.77
2022-07-26T22:04:18.290Z,12.88
2022-07-26T22:06:46.403Z,11.32
2022-07-26T22:09:15.886Z,13.35
2022-07-26T22:11:43.881Z,12.55
2022-07-26T22:14:11.829Z,11.15
2022-07-26T22:16:39.894Z,11.57
2022-07-26T22:19:08.783Z,12.00
2022-07-26T22:21:37.060Z,10.98
2022-07-26T22:24:05.689Z,11.30
2022-07-26T22:26:36.148Z,11.50
2022-07-26T22:29:04.128Z,11.18
2022-07-26T22:31:32.477Z,12.93
2022-07-26T22:34:00.472Z,11.75
2022-07-26T22:36:28.600Z,12.75
2022-07-26T22:38:56.643Z,13.90
2022-07-26T22:41:24.671Z,11.18
2022-07-26T22:43:54.165Z,13.85
2022-07-26T22:46:29.159Z,12.80
2022-07-26T22:48:57.605Z,13.57
2022-07-26T22:51:25.665Z,11.48
2022-07-26T22:53:53.612Z,12.20
2022-07-26T22:56:22.215Z,11.27
2022-07-26T22:58:50.218Z,12.32
2022-07-26T23:01:19.727Z,10.50
2022-07-26T23:03:49.677Z,11.85
2022-07-26T23:06:31.797Z,12.88
2022-07-26T23:09:00.548Z,12.48
2022-07-26T23:11:28.676Z,12.10
2022-07-26T23:13:59.782Z,12.20
2022-07-26T23:16:29.295Z,12.38
2022-07-26T23:18:57.391Z,13.38
2022-07-26T23:21:25.436Z,11.63
2022-07-26T23:23:53.568Z,15.00
2022-07-26T23:26:24.131Z,11.32
2022-07-26T23:28:55.603Z,11.88
2022-07-26T23:31:23.677Z,14.13
2022-07-26T23:33:54.640Z,11.68
2022-07-26T23:36:27.154Z,11.45
2022-07-26T23:38:55.380Z,12.32
2022-07-26T23:41:23.446Z,11.32
2022-07-26T23:43:52.271Z,11.70
2022-07-26T23:46:20.433Z,11.45
2022-07-26T23:48:48.552Z,11.02
2022-07-26T23:51:19.459Z,11.65
2022-07-26T23:53:47.925Z,18.55
2022-07-26T23:56:16.093Z,11.50
2022-07-26T23:58:44.503Z,11.25
